San Francisco, CA (94127)

1:51 PM PST on February 14, 2016 (GMT -0800)
Westwood | | Change Station
CLOSE
Current Station
Personal Weather Station
Location: San Francisco, CA
Elevation: 351 ft
Nearby Weather Stations

Elev 351 ft 37.73 °N, 122.46 °W | Updated 16 seconds ago

Partly Cloudy
Partly Cloudy
65.3 °F
Feels Like 65.3 °F
N
6.0
Wind Variable Wind from WNW
Gusts 7.4 mph

Today
High -- | Low -- °F
--% Chance of Precip.
Yesterday
High -- | Low -- °F
Precip. -- in
Pressure 30.25 in
Visibility 10.0 miles
Clouds Few 16000 ft
Mostly Cloudy 20000 ft
Dew Point 41 °F
Humidity 41%
Rainfall 0.00 in
Snow Depth Not available.
7:01 AM 5:47 PM
Waxing Crescent, 45% visible
METAR KSFO 142056Z 36003KT 10SM FEW160 BKN200 18/10 A3025 RMK AO2 SLP243 T01780100 58020 $
Pressure 30.25 in
Visibility 10.0 miles
Clouds Few 16000 ft
Mostly Cloudy 20000 ft
Dew Point 41 °F
Humidity 41%
Rainfall 0.00 in
Snow Depth Not available.
7:01 AM 5:47 PM
Waxing Crescent, 45% visible
METAR KSFO 142056Z 36003KT 10SM FEW160 BKN200 18/10 A3025 RMK AO2 SLP243 T01780100 58020 $

10-Day Weather Forecast

Almanac

Astronomy

Feb. 14, 2016 Rise Set
Actual Time
Civil Twilight
Nautical Twilight
Astronomical Twilight
Moon
Length of Visible Light
Length of Day
Tomorrow will be .
, % of the Moon is Illuminated

Today's Extremes

State Highs State Lows

Community

WunderPhotos

Upload Photos

1,892,890 photos uploaded!

WunderBlog® & News

Nearby

Air Quality

  Air Quality AQ Index Pollutant
Not available.

Snow Depth

Station Depth Elevation

Earthquake Activity

City Distance Mag. Time & Date
Minimum magnitude displayed is 2.5.

Coastal Water Temperatures

Place Temperature

Stations

Nearby Weather Stations

Station Location Temp. Windchill Dew Point Humidity Wind Precip. Elev Updated Type
                   

Watches & Warnings

There are currently no watches in effect.